Terminal Aerodrome Forecast
Issued by NWS King Salmon, AK

Home | Current Version | Previous Version | Text Only | Print | Product List | Glossary On
Versions: 1 2 3 4 5 6 7 8 9 10 11 12 13 14 15 16 17 18 19 20 21 22 23 24 25 26 27 28 29 30 31 32 33 34 35 36
000
FTAK31 PANC 172018 AAA
TAFAKN
TAF AMD
PAKN 172018Z 1720/1818 36012KT P6SM -FZRA OVC035
     FM172200 35010KT 6SM -FZRASN SCT015 BKN025
     FM180000 34009KT 4SM -SN BR BKN015
     FM180400 33007KT P6SM VCSH BKN025=

USA.gov is the U.S. government's official web portal to all federal, state and local government web resources and services.